sensor_id;sensor_type;location;lat;lon;timestamp;temperature;humidity
36790;DHT22;22740;52.182;8.780;2024-03-23T00:59:41;7.00;99.90
36790;DHT22;22740;52.182;8.780;2024-03-23T01:05:42;6.90;99.90
36790;DHT22;22740;52.182;8.780;2024-03-23T01:11:43;7.10;99.90
36790;DHT22;22740;52.182;8.780;2024-03-23T01:17:44;7.00;99.90
36790;DHT22;22740;52.182;8.780;2024-03-23T01:23:45;6.80;99.90
36790;DHT22;22740;52.182;8.780;2024-03-23T01:29:46;6.80;99.90
36790;DHT22;22740;52.182;8.780;2024-03-23T01:35:47;6.90;99.90
36790;DHT22;22740;52.182;8.780;2024-03-23T01:41:48;6.90;99.90
36790;DHT22;22740;52.182;8.780;2024-03-23T01:47:52;6.80;99.90
36790;DHT22;22740;52.182;8.780;2024-03-23T01:53:54;6.80;99.90
36790;DHT22;22740;52.182;8.780;2024-03-23T01:59:55;6.80;99.90
36790;DHT22;22740;52.182;8.780;2024-03-23T02:05:56;6.70;99.90
36790;DHT22;22740;52.182;8.780;2024-03-23T02:11:57;6.60;99.90
36790;DHT22;22740;52.182;8.780;2024-03-23T02:17:58;6.60;99.90
36790;DHT22;22740;52.182;8.780;2024-03-23T02:24:00;6.50;99.90
36790;DHT22;22740;52.182;8.780;2024-03-23T02:30:01;6.50;99.90
36790;DHT22;22740;52.182;8.780;2024-03-23T02:36:02;6.40;99.90
36790;DHT22;22740;52.182;8.780;2024-03-23T02:42:03;6.30;99.90
36790;DHT22;22740;52.182;8.780;2024-03-23T02:48:04;6.30;99.90
36790;DHT22;22740;52.182;8.780;2024-03-23T02:54:05;6.20;99.90
36790;DHT22;22740;52.182;8.780;2024-03-23T03:00:07;6.30;99.90
36790;DHT22;22740;52.182;8.780;2024-03-23T03:06:08;6.30;99.90
36790;DHT22;22740;52.182;8.780;2024-03-23T03:12:09;6.20;99.90
36790;DHT22;22740;52.182;8.780;2024-03-23T03:18:10;6.20;99.90
36790;DHT22;22740;52.182;8.780;2024-03-23T03:24:11;6.30;99.90
36790;DHT22;22740;52.182;8.780;2024-03-23T03:30:12;6.30;99.90
36790;DHT22;22740;52.182;8.780;2024-03-23T03:36:13;6.30;99.90
36790;DHT22;22740;52.182;8.780;2024-03-23T03:42:14;6.20;99.90
36790;DHT22;22740;52.182;8.780;2024-03-23T03:48:15;6.20;99.90
36790;DHT22;22740;52.182;8.780;2024-03-23T03:54:16;6.20;99.90
36790;DHT22;22740;52.182;8.780;2024-03-23T04:00:17;6.30;99.90
36790;DHT22;22740;52.182;8.780;2024-03-23T04:06:19;6.40;99.90
36790;DHT22;22740;52.182;8.780;2024-03-23T04:12:20;6.20;99.90
36790;DHT22;22740;52.182;8.780;2024-03-23T04:18:21;6.20;99.90
36790;DHT22;22740;52.182;8.780;2024-03-23T04:24:22;6.20;99.90
36790;DHT22;22740;52.182;8.780;2024-03-23T04:30:23;6.10;99.90
36790;DHT22;22740;52.182;8.780;2024-03-23T04:36:25;6.10;99.90
36790;DHT22;22740;52.182;8.780;2024-03-23T04:42:26;6.30;99.90
36790;DHT22;22740;52.182;8.780;2024-03-23T04:48:28;6.40;99.90
36790;DHT22;22740;52.182;8.780;2024-03-23T04:54:29;6.40;99.90
36790;DHT22;22740;52.182;8.780;2024-03-23T05:00:30;6.50;99.90
36790;DHT22;22740;52.182;8.780;2024-03-23T05:06:31;6.50;99.90
36790;DHT22;22740;52.182;8.780;2024-03-23T05:12:32;6.10;99.90
36790;DHT22;22740;52.182;8.780;2024-03-23T05:18:33;6.20;99.90
36790;DHT22;22740;52.182;8.780;2024-03-23T05:24:37;6.10;99.90
36790;DHT22;22740;52.182;8.780;2024-03-23T05:30:38;5.90;99.90
36790;DHT22;22740;52.182;8.780;2024-03-23T05:36:39;5.90;99.90
36790;DHT22;22740;52.182;8.780;2024-03-23T05:42:40;5.90;99.90
36790;DHT22;22740;52.182;8.780;2024-03-23T05:48:41;5.90;99.90
36790;DHT22;22740;52.182;8.780;2024-03-23T05:54:41;5.90;99.90
36790;DHT22;22740;52.182;8.780;2024-03-23T06:00:43;5.90;99.90
36790;DHT22;22740;52.182;8.780;2024-03-23T06:06:45;5.80;99.90
36790;DHT22;22740;52.182;8.780;2024-03-23T06:12:49;5.90;99.90
36790;DHT22;22740;52.182;8.780;2024-03-23T06:18:52;6.00;99.90
36790;DHT22;22740;52.182;8.780;2024-03-23T06:24:53;6.10;99.90
36790;DHT22;22740;52.182;8.780;2024-03-23T06:30:54;6.30;99.90
36790;DHT22;22740;52.182;8.780;2024-03-23T06:36:55;6.30;99.90
36790;DHT22;22740;52.182;8.780;2024-03-23T06:42:56;6.20;99.90
36790;DHT22;22740;52.182;8.780;2024-03-23T06:48:57;6.30;99.90
36790;DHT22;22740;52.182;8.780;2024-03-23T06:55:01;6.50;99.90
36790;DHT22;22740;52.182;8.780;2024-03-23T07:01:05;6.60;99.90
36790;DHT22;22740;52.182;8.780;2024-03-23T07:07:09;6.70;99.90
36790;DHT22;22740;52.182;8.780;2024-03-23T07:13:09;6.60;99.90
36790;DHT22;22740;52.182;8.780;2024-03-23T07:19:11;6.60;99.90
36790;DHT22;22740;52.182;8.780;2024-03-23T07:25:11;6.50;99.90
36790;DHT22;22740;52.182;8.780;2024-03-23T07:31:15;6.60;99.90
36790;DHT22;22740;52.182;8.780;2024-03-23T07:37:17;6.50;99.90
36790;DHT22;22740;52.182;8.780;2024-03-23T07:43:18;6.60;99.90
36790;DHT22;22740;52.182;8.780;2024-03-23T07:49:19;6.80;99.90
36790;DHT22;22740;52.182;8.780;2024-03-23T07:55:20;7.00;99.90
36790;DHT22;22740;52.182;8.780;2024-03-23T08:01:22;7.10;99.90
36790;DHT22;22740;52.182;8.780;2024-03-23T08:07:23;7.20;99.90
36790;DHT22;22740;52.182;8.780;2024-03-23T08:13:23;7.20;99.90
36790;DHT22;22740;52.182;8.780;2024-03-23T08:19:24;7.20;99.90
36790;DHT22;22740;52.182;8.780;2024-03-23T08:25:25;7.20;99.90
36790;DHT22;22740;52.182;8.780;2024-03-23T08:31:26;7.40;99.90
36790;DHT22;22740;52.182;8.780;2024-03-23T08:37:27;7.90;99.90
36790;DHT22;22740;52.182;8.780;2024-03-23T08:43:29;7.80;99.90
36790;DHT22;22740;52.182;8.780;2024-03-23T08:49:33;7.50;99.90
36790;DHT22;22740;52.182;8.780;2024-03-23T08:55:34;7.50;99.90
36790;DHT22;22740;52.182;8.780;2024-03-23T09:01:35;7.30;99.90
36790;DHT22;22740;52.182;8.780;2024-03-23T09:07:36;7.30;99.90
36790;DHT22;22740;52.182;8.780;2024-03-23T09:13:37;7.60;99.90
36790;DHT22;22740;52.182;8.780;2024-03-23T09:19:39;7.90;99.90
36790;DHT22;22740;52.182;8.780;2024-03-23T09:25:40;7.80;99.90
36790;DHT22;22740;52.182;8.780;2024-03-23T09:31:41;8.00;99.90
36790;DHT22;22740;52.182;8.780;2024-03-23T09:37:42;8.00;99.90
36790;DHT22;22740;52.182;8.780;2024-03-23T09:43:45;8.60;99.90
36790;DHT22;22740;52.182;8.780;2024-03-23T09:49:49;9.00;99.90
36790;DHT22;22740;52.182;8.780;2024-03-23T09:55:50;9.20;99.90
36790;DHT22;22740;52.182;8.780;2024-03-23T10:01:51;8.80;99.90
36790;DHT22;22740;52.182;8.780;2024-03-23T10:07:52;8.60;99.90
36790;DHT22;22740;52.182;8.780;2024-03-23T10:13:53;8.40;99.90
36790;DHT22;22740;52.182;8.780;2024-03-23T10:19:57;8.10;99.90
36790;DHT22;22740;52.182;8.780;2024-03-23T10:26:20;7.90;99.90
36790;DHT22;22740;52.182;8.780;2024-03-23T10:32:26;8.30;99.90
36790;DHT22;22740;52.182;8.780;2024-03-23T10:38:29;8.80;99.90
36790;DHT22;22740;52.182;8.780;2024-03-23T10:44:31;9.10;99.90
36790;DHT22;22740;52.182;8.780;2024-03-23T10:50:32;8.80;99.90
36790;DHT22;22740;52.182;8.780;2024-03-23T10:56:36;8.50;99.90
36790;DHT22;22740;52.182;8.780;2024-03-23T11:02:37;8.40;99.90
36790;DHT22;22740;52.182;8.780;2024-03-23T11:08:39;9.10;99.90
36790;DHT22;22740;52.182;8.780;2024-03-23T11:14:40;9.50;99.90
36790;DHT22;22740;52.182;8.780;2024-03-23T11:20:41;8.60;99.90
36790;DHT22;22740;52.182;8.780;2024-03-23T11:26:42;8.30;99.90
36790;DHT22;22740;52.182;8.780;2024-03-23T11:32:45;7.90;99.90
36790;DHT22;22740;52.182;8.780;2024-03-23T11:38:46;6.70;99.90
36790;DHT22;22740;52.182;8.780;2024-03-23T11:44:47;5.90;99.90
36790;DHT22;22740;52.182;8.780;2024-03-23T11:50:56;5.90;99.90
36790;DHT22;22740;52.182;8.780;2024-03-23T11:57:02;6.10;99.90
36790;DHT22;22740;52.182;8.780;2024-03-23T12:03:08;6.40;99.90
36790;DHT22;22740;52.182;8.780;2024-03-23T12:09:10;7.40;99.90
36790;DHT22;22740;52.182;8.780;2024-03-23T12:15:11;8.10;99.90
36790;DHT22;22740;52.182;8.780;2024-03-23T12:21:13;7.70;99.90
36790;DHT22;22740;52.182;8.780;2024-03-23T12:27:14;7.50;99.90
36790;DHT22;22740;52.182;8.780;2024-03-23T12:33:15;7.60;99.90
36790;DHT22;22740;52.182;8.780;2024-03-23T12:39:16;7.50;99.90
36790;DHT22;22740;52.182;8.780;2024-03-23T12:45:17;7.30;99.90
36790;DHT22;22740;52.182;8.780;2024-03-23T12:51:18;7.50;99.90
36790;DHT22;22740;52.182;8.780;2024-03-23T12:57:19;7.30;99.90
36790;DHT22;22740;52.182;8.780;2024-03-23T13:03:20;7.30;99.90
36790;DHT22;22740;52.182;8.780;2024-03-23T13:09:21;7.70;99.90
36790;DHT22;22740;52.182;8.780;2024-03-23T13:15:21;8.20;99.90
36790;DHT22;22740;52.182;8.780;2024-03-23T13:21:22;8.50;99.90
36790;DHT22;22740;52.182;8.780;2024-03-23T13:27:23;8.10;99.90
36790;DHT22;22740;52.182;8.780;2024-03-23T13:33:24;6.40;99.90
36790;DHT22;22740;52.182;8.780;2024-03-23T13:39:25;5.00;99.90
36790;DHT22;22740;52.182;8.780;2024-03-23T13:45:28;4.80;99.90
36790;DHT22;22740;52.182;8.780;2024-03-23T13:51:30;4.70;99.90
36790;DHT22;22740;52.182;8.780;2024-03-23T13:57:31;4.90;99.90
36790;DHT22;22740;52.182;8.780;2024-03-23T14:03:32;5.90;99.90
36790;DHT22;22740;52.182;8.780;2024-03-23T14:09:33;6.60;99.90
36790;DHT22;22740;52.182;8.780;2024-03-23T14:15:34;7.10;99.90
36790;DHT22;22740;52.182;8.780;2024-03-23T14:21:37;7.40;99.90
36790;DHT22;22740;52.182;8.780;2024-03-23T14:27:38;7.20;99.90
36790;DHT22;22740;52.182;8.780;2024-03-23T14:33:40;7.00;99.90
36790;DHT22;22740;52.182;8.780;2024-03-23T14:39:51;7.20;99.90
36790;DHT22;22740;52.182;8.780;2024-03-23T14:46:11;6.80;99.90
36790;DHT22;22740;52.182;8.780;2024-03-23T14:52:16;6.50;99.90
36790;DHT22;22740;52.182;8.780;2024-03-23T14:58:17;6.30;99.90
36790;DHT22;22740;52.182;8.780;2024-03-23T15:04:18;6.70;99.90
36790;DHT22;22740;52.182;8.780;2024-03-23T15:10:20;7.00;99.90
36790;DHT22;22740;52.182;8.780;2024-03-23T15:16:21;7.10;99.90
36790;DHT22;22740;52.182;8.780;2024-03-23T15:22:22;6.80;99.90
36790;DHT22;22740;52.182;8.780;2024-03-23T15:28:26;6.80;99.90
36790;DHT22;22740;52.182;8.780;2024-03-23T15:34:38;6.80;99.90
36790;DHT22;22740;52.182;8.780;2024-03-23T15:40:39;6.80;99.90
36790;DHT22;22740;52.182;8.780;2024-03-23T15:46:40;6.80;99.90
36790;DHT22;22740;52.182;8.780;2024-03-23T15:52:41;7.50;99.90
36790;DHT22;22740;52.182;8.780;2024-03-23T15:58:42;7.90;99.90
36790;DHT22;22740;52.182;8.780;2024-03-23T16:04:43;7.30;99.90
36790;DHT22;22740;52.182;8.780;2024-03-23T16:10:46;6.70;99.90
36790;DHT22;22740;52.182;8.780;2024-03-23T16:16:46;6.60;99.90
36790;DHT22;22740;52.182;8.780;2024-03-23T16:22:47;6.80;99.90
36790;DHT22;22740;52.182;8.780;2024-03-23T16:28:48;6.90;99.90
36790;DHT22;22740;52.182;8.780;2024-03-23T16:34:49;6.80;99.90
36790;DHT22;22740;52.182;8.780;2024-03-23T16:40:58;6.70;99.90
36790;DHT22;22740;52.182;8.780;2024-03-23T16:46:59;6.40;99.90
36790;DHT22;22740;52.182;8.780;2024-03-23T16:53:00;6.40;99.90
36790;DHT22;22740;52.182;8.780;2024-03-23T16:59:01;6.30;99.90
36790;DHT22;22740;52.182;8.780;2024-03-23T17:05:02;6.10;99.90
36790;DHT22;22740;52.182;8.780;2024-03-23T17:11:03;6.00;99.90
36790;DHT22;22740;52.182;8.780;2024-03-23T17:17:07;5.00;99.90
36790;DHT22;22740;52.182;8.780;2024-03-23T17:23:10;4.60;99.90
36790;DHT22;22740;52.182;8.780;2024-03-23T17:29:11;4.50;99.90
36790;DHT22;22740;52.182;8.780;2024-03-23T17:35:13;4.50;99.90
36790;DHT22;22740;52.182;8.780;2024-03-23T17:41:14;4.30;99.90
36790;DHT22;22740;52.182;8.780;2024-03-23T17:47:15;4.10;99.90
36790;DHT22;22740;52.182;8.780;2024-03-23T17:53:16;4.10;99.90
36790;DHT22;22740;52.182;8.780;2024-03-23T17:59:16;4.20;99.90
36790;DHT22;22740;52.182;8.780;2024-03-23T18:05:17;4.30;99.90
36790;DHT22;22740;52.182;8.780;2024-03-23T18:11:22;4.40;99.90
36790;DHT22;22740;52.182;8.780;2024-03-23T18:17:23;4.50;99.90
36790;DHT22;22740;52.182;8.780;2024-03-23T18:23:24;4.50;99.90
36790;DHT22;22740;52.182;8.780;2024-03-23T18:29:25;4.60;99.90
36790;DHT22;22740;52.182;8.780;2024-03-23T18:35:26;4.70;99.90
36790;DHT22;22740;52.182;8.780;2024-03-23T18:41:26;4.70;99.90
36790;DHT22;22740;52.182;8.780;2024-03-23T18:47:29;4.70;99.90
36790;DHT22;22740;52.182;8.780;2024-03-23T18:53:30;4.80;99.90
36790;DHT22;22740;52.182;8.780;2024-03-23T18:59:31;4.80;99.90
36790;DHT22;22740;52.182;8.780;2024-03-23T19:05:32;4.90;99.90
36790;DHT22;22740;52.182;8.780;2024-03-23T19:11:33;4.90;99.90
36790;DHT22;22740;52.182;8.780;2024-03-23T19:17:34;4.70;99.90
36790;DHT22;22740;52.182;8.780;2024-03-23T19:23:35;4.70;99.90
36790;DHT22;22740;52.182;8.780;2024-03-23T19:29:36;4.60;99.90
36790;DHT22;22740;52.182;8.780;2024-03-23T19:35:37;4.60;99.90
36790;DHT22;22740;52.182;8.780;2024-03-23T19:41:38;4.50;99.90
36790;DHT22;22740;52.182;8.780;2024-03-23T19:47:39;4.40;99.90
36790;DHT22;22740;52.182;8.780;2024-03-23T19:53:40;4.40;99.90
36790;DHT22;22740;52.182;8.780;2024-03-23T19:59:41;4.20;99.90
36790;DHT22;22740;52.182;8.780;2024-03-23T20:05:43;4.20;99.90
36790;DHT22;22740;52.182;8.780;2024-03-23T20:11:45;4.20;99.90
36790;DHT22;22740;52.182;8.780;2024-03-23T20:17:46;4.20;99.90
36790;DHT22;22740;52.182;8.780;2024-03-23T20:23:50;4.00;99.90
36790;DHT22;22740;52.182;8.780;2024-03-23T20:29:51;4.10;99.90
36790;DHT22;22740;52.182;8.780;2024-03-23T20:35:53;4.00;99.90
36790;DHT22;22740;52.182;8.780;2024-03-23T20:41:54;4.00;99.90
36790;DHT22;22740;52.182;8.780;2024-03-23T20:47:55;4.00;99.90
36790;DHT22;22740;52.182;8.780;2024-03-23T20:53:56;4.00;99.90
36790;DHT22;22740;52.182;8.780;2024-03-23T20:59:57;3.90;99.90
36790;DHT22;22740;52.182;8.780;2024-03-23T21:05:58;4.00;99.90
36790;DHT22;22740;52.182;8.780;2024-03-23T21:11:59;4.00;99.90
36790;DHT22;22740;52.182;8.780;2024-03-23T21:18:01;3.90;99.90
36790;DHT22;22740;52.182;8.780;2024-03-23T21:24:02;3.80;99.90
36790;DHT22;22740;52.182;8.780;2024-03-23T21:30:06;3.80;99.90
36790;DHT22;22740;52.182;8.780;2024-03-23T21:36:07;3.80;99.90
36790;DHT22;22740;52.182;8.780;2024-03-23T21:42:08;3.80;99.90
36790;DHT22;22740;52.182;8.780;2024-03-23T21:48:09;3.70;99.90
36790;DHT22;22740;52.182;8.780;2024-03-23T21:54:10;3.80;99.90
36790;DHT22;22740;52.182;8.780;2024-03-23T22:00:11;3.90;99.90
36790;DHT22;22740;52.182;8.780;2024-03-23T22:06:12;3.90;99.90
36790;DHT22;22740;52.182;8.780;2024-03-23T22:12:13;3.90;99.90
36790;DHT22;22740;52.182;8.780;2024-03-23T22:18:14;3.90;99.90
36790;DHT22;22740;52.182;8.780;2024-03-23T22:24:15;3.90;99.90
36790;DHT22;22740;52.182;8.780;2024-03-23T22:30:16;3.80;99.90
36790;DHT22;22740;52.182;8.780;2024-03-23T22:36:17;3.80;99.90
36790;DHT22;22740;52.182;8.780;2024-03-23T22:42:17;3.90;99.90
36790;DHT22;22740;52.182;8.780;2024-03-23T22:48:18;3.80;99.90
36790;DHT22;22740;52.182;8.780;2024-03-23T22:54:19;3.70;99.90
36790;DHT22;22740;52.182;8.780;2024-03-23T23:00:20;3.80;99.90
36790;DHT22;22740;52.182;8.780;2024-03-23T23:06:22;3.90;99.90
36790;DHT22;22740;52.182;8.780;2024-03-23T23:12:24;3.90;99.90
36790;DHT22;22740;52.182;8.780;2024-03-23T23:18:24;3.90;99.90
36790;DHT22;22740;52.182;8.780;2024-03-23T23:24:25;3.90;99.90
36790;DHT22;22740;52.182;8.780;2024-03-23T23:30:26;3.80;99.90
36790;DHT22;22740;52.182;8.780;2024-03-23T23:36:27;3.80;99.90
36790;DHT22;22740;52.182;8.780;2024-03-23T23:42:28;3.70;99.90
36790;DHT22;22740;52.182;8.780;2024-03-23T23:48:29;3.80;99.90
36790;DHT22;22740;52.182;8.780;2024-03-23T23:54:30;3.70;99.90
